createdAt,value
2019-02-17T06:47:40.971Z,78.16
2019-02-17T06:48:40.952Z,77.75
2019-02-17T06:49:40.928Z,77.95
2019-02-17T06:50:40.935Z,77.54
2019-02-17T06:51:40.909Z,77.54
2019-02-17T06:52:40.897Z,77.54
2019-02-17T06:53:40.901Z,78.23
2019-02-17T06:54:40.883Z,78.64
2019-02-17T06:55:40.884Z,78.44
2019-02-17T06:56:40.866Z,77.71
2019-02-17T06:57:40.844Z,77.26
2019-02-17T06:58:40.832Z,77.19
2019-02-17T06:59:40.826Z,76.98
2019-02-17T07:00:40.845Z,77.09
2019-02-17T07:01:40.801Z,77.15
2019-02-17T07:02:40.791Z,77.05
2019-02-17T07:03:40.839Z,76.98
2019-02-17T07:04:40.786Z,76.98
2019-02-17T07:05:40.779Z,76.88
2019-02-17T07:06:40.781Z,77.09
2019-02-17T07:07:40.738Z,77.50
2019-02-17T07:08:40.736Z,77.19
2019-02-17T07:09:40.716Z,76.98
2019-02-17T07:10:40.708Z,76.84
2019-02-17T07:11:40.721Z,76.74
2019-02-17T07:12:42.626Z,76.74
2019-02-17T07:13:40.672Z,76.84
2019-02-17T07:14:40.668Z,76.91
2019-02-17T07:15:40.652Z,76.19
2019-02-17T07:16:40.658Z,75.57
2019-02-17T07:17:40.632Z,76.09
2019-02-17T07:18:40.619Z,75.88
2019-02-17T07:19:40.611Z,75.67
2019-02-17T07:20:40.598Z,75.60
2019-02-17T07:21:40.616Z,75.71
2019-02-17T07:22:40.576Z,75.67
2019-02-17T07:23:40.574Z,75.15
2019-02-17T07:24:40.557Z,75.36
2019-02-17T07:25:40.557Z,75.57
2019-02-17T07:26:40.556Z,74.74
2019-02-17T07:27:40.526Z,74.81
2019-02-17T07:28:40.524Z,75.15
2019-02-17T07:29:40.510Z,75.05
2019-02-17T07:30:40.507Z,74.91
2019-02-17T07:31:40.545Z,75.36
2019-02-17T07:32:40.476Z,74.12
2019-02-17T07:33:40.466Z,74.81
2019-02-17T07:34:40.456Z,74.19
2019-02-17T07:35:40.447Z,74.29
2019-02-17T07:36:40.452Z,73.98
2019-02-17T07:38:34.385Z,73.57
2019-02-17T07:39:34.371Z,73.64
2019-02-17T07:40:34.365Z,73.84
2019-02-17T07:41:34.389Z,73.33
2019-02-17T07:42:34.357Z,72.91
2019-02-17T07:43:34.331Z,73.02
2019-02-17T07:44:34.321Z,72.91
2019-02-17T07:45:34.309Z,72.67
2019-02-17T07:46:34.304Z,72.98
2019-02-17T07:47:34.306Z,72.88
2019-02-17T07:48:34.280Z,72.78
2019-02-17T07:49:34.302Z,72.78
2019-02-17T07:50:34.256Z,72.26
2019-02-17T07:51:34.254Z,72.33
2019-02-17T07:52:34.437Z,72.02
2019-02-17T07:53:34.225Z,71.92
2019-02-17T07:54:34.214Z,71.06
2019-02-17T07:55:34.202Z,71.06
2019-02-17T07:56:34.198Z,71.06
2019-02-17T07:57:34.210Z,70.40
2019-02-17T07:58:34.174Z,70.40
2019-02-17T07:59:34.168Z,70.40
2019-02-17T08:00:34.151Z,69.99
2019-02-17T08:01:34.138Z,69.75
2019-02-17T08:02:34.160Z,69.75
2019-02-17T08:03:34.119Z,69.75
2019-02-17T08:04:34.138Z,69.34
2019-02-17T08:05:34.113Z,69.72
2019-02-17T08:06:34.105Z,69.10
2019-02-17T08:07:34.100Z,69.10
2019-02-17T08:08:34.081Z,68.38
2019-02-17T08:09:34.056Z,68.48
2019-02-17T08:10:34.045Z,68.14
2019-02-17T08:11:34.034Z,67.83
2019-02-17T08:12:34.043Z,68.14
2019-02-17T08:13:34.014Z,67.63
2019-02-17T08:14:34.006Z,67.42
2019-02-17T08:15:34.002Z,67.08
2019-02-17T08:16:33.995Z,67.08
2019-02-17T08:17:33.997Z,66.64
2019-02-17T08:18:33.963Z,66.74
2019-02-17T08:19:33.956Z,66.30
2019-02-17T08:20:36.386Z,65.89
2019-02-17T08:21:33.938Z,65.37
2019-02-17T08:22:33.966Z,65.13
2019-02-17T08:23:33.914Z,65.44
2019-02-17T08:24:33.902Z,64.83
2019-02-17T08:25:33.899Z,64.07
2019-02-17T08:26:33.880Z,64.28
2019-02-17T08:27:33.871Z,64.39
2019-02-17T08:28:33.898Z,64.39
2019-02-17T08:29:33.849Z,63.84
2019-02-17T08:30:33.840Z,63.12
2019-02-17T08:31:33.834Z,63.02
2019-02-17T08:32:33.824Z,62.68
2019-02-17T08:33:33.831Z,62.55
2019-02-17T08:34:33.806Z,62.24
2019-02-17T08:35:33.816Z,62.24
2019-02-17T08:36:33.779Z,61.93
2019-02-17T08:37:33.773Z,62.21
2019-02-17T08:38:33.779Z,60.91
2019-02-17T08:39:33.749Z,61.62
2019-02-17T08:40:33.741Z,62.04
2019-02-17T08:41:33.726Z,61.70
2019-02-17T08:42:33.732Z,60.88
2019-02-17T08:43:33.729Z,61.18
2019-02-17T08:44:33.695Z,60.67
2019-02-17T08:45:33.687Z,60.77
2019-02-17T08:46:33.673Z,60.64
2019-02-17T08:47:33.662Z,60.61
2019-02-17T08:48:33.671Z,59.89
2019-02-17T08:49:33.661Z,60.17
2019-02-17T08:50:33.629Z,59.46
2019-02-17T08:51:33.620Z,58.40
2019-02-17T08:52:33.606Z,58.28
2019-02-17T08:53:33.614Z,58.40
2019-02-17T08:54:33.586Z,58.30
2019-02-17T08:55:33.645Z,58.40
2019-02-17T08:56:33.567Z,58.07
2019-02-17T08:57:33.559Z,58.17
2019-02-17T08:58:33.573Z,58.38
2019-02-17T08:59:33.532Z,58.17
2019-02-17T09:00:33.520Z,57.64
2019-02-17T09:01:33.513Z,57.23
2019-02-17T09:02:33.500Z,57.12
2019-02-17T09:03:33.516Z,56.28
2019-02-17T09:04:33.480Z,56.18
2019-02-17T09:05:43.644Z,56.38
2019-02-17T09:06:34.467Z,56.25
2019-02-17T09:07:33.455Z,56.25
2019-02-17T09:08:33.464Z,56.15
2019-02-17T09:09:33.435Z,55.74
2019-02-17T09:10:33.417Z,55.74
2019-02-17T09:11:33.408Z,56.25
2019-02-17T09:12:33.392Z,56.35
2019-02-17T09:13:33.413Z,56.46
2019-02-17T09:14:33.377Z,55.92
2019-02-17T09:15:33.365Z,55.89
2019-02-17T09:16:33.349Z,54.74
2019-02-17T09:17:33.335Z,54.33
2019-02-17T09:18:33.337Z,54.31
2019-02-17T09:19:33.330Z,53.98
2019-02-17T09:20:33.305Z,53.06
2019-02-17T09:21:33.292Z,53.03
2019-02-17T09:22:33.282Z,52.04
2019-02-17T09:23:33.271Z,52.60
2019-02-17T09:24:33.284Z,51.68
2019-02-17T09:25:33.249Z,51.81
2019-02-17T09:26:33.238Z,52.22
2019-02-17T09:27:33.225Z,52.20
2019-02-17T09:28:33.219Z,51.15
2019-02-17T09:29:33.224Z,50.44
2019-02-17T09:30:33.207Z,50.42
2019-02-17T09:31:33.180Z,50.39
2019-02-17T09:32:33.170Z,49.27
2019-02-17T09:33:33.159Z,49.35
2019-02-17T09:34:33.166Z,48.84
2019-02-17T09:35:33.137Z,48.64
2019-02-17T09:36:33.138Z,48.43
2019-02-17T09:37:33.117Z,48.08
2019-02-17T09:38:33.113Z,47.86
2019-02-17T09:39:33.116Z,47.05
2019-02-17T09:40:33.086Z,47.05
2019-02-17T09:41:33.073Z,46.51
2019-02-17T09:42:33.079Z,46.01
2019-02-17T09:43:33.054Z,46.01
2019-02-17T09:44:33.100Z,46.19
2019-02-17T09:45:33.033Z,46.44
2019-02-17T09:46:33.072Z,46.11
2019-02-17T09:47:33.011Z,46.11
2019-02-17T09:48:33.010Z,46.31
2019-02-17T09:49:33.008Z,46.01
2019-02-17T09:50:32.977Z,45.58
2019-02-17T09:51:32.968Z,45.36
2019-02-17T09:52:32.959Z,44.54
2019-02-17T09:53:32.943Z,44.36
2019-02-17T09:54:32.958Z,44.65
2019-02-17T09:55:32.924Z,44.24
2019-02-17T09:56:32.911Z,44.65
2019-02-17T09:57:32.904Z,43.84
2019-02-17T09:58:32.894Z,43.84
2019-02-17T09:59:32.901Z,43.69
2019-02-17T10:00:32.885Z,42.78
2019-02-17T10:01:32.858Z,43.06
2019-02-17T10:02:32.847Z,43.08
2019-02-17T10:03:32.836Z,43.14
2019-02-17T10:04:32.844Z,42.63
2019-02-17T10:05:32.820Z,42.01
2019-02-17T10:06:32.819Z,42.58
2019-02-17T10:07:32.796Z,41.12
2019-02-17T10:08:32.785Z,40.19
2019-02-17T10:09:32.799Z,40.31
2019-02-17T10:10:32.766Z,40.82
2019-02-17T10:11:32.755Z,39.70
2019-02-17T10:12:32.745Z,40.17
2019-02-17T10:13:32.752Z,41.40
2019-02-17T10:14:32.718Z,41.18
2019-02-17T10:15:32.728Z,40.95
2019-02-17T10:16:32.701Z,41.16
2019-02-17T10:17:32.688Z,41.36
2019-02-17T10:18:32.675Z,40.94
2019-02-17T10:19:32.663Z,40.92
2019-02-17T10:20:32.681Z,40.13
2019-02-17T10:21:32.647Z,40.64
2019-02-17T10:22:32.629Z,40.82
2019-02-17T10:23:32.630Z,40.59
2019-02-17T10:24:32.608Z,39.70
2019-02-17T10:25:32.639Z,40.30
2019-02-17T10:26:32.612Z,39.87
2019-02-17T10:27:32.581Z,39.28
2019-02-17T10:28:41.842Z,39.85
2019-02-17T10:29:33.553Z,39.26
2019-02-17T10:30:32.562Z,39.94
2019-02-17T10:31:32.541Z,38.34
2019-02-17T10:32:38.377Z,38.02
2019-02-17T10:33:33.512Z,38.40
2019-02-17T10:34:32.505Z,37.80
2019-02-17T10:35:32.514Z,38.04
2019-02-17T10:36:32.480Z,38.98
2019-02-17T10:37:32.493Z,39.18
2019-02-17T10:38:32.462Z,39.08
2019-02-17T10:39:32.453Z,39.28
2019-02-17T10:40:32.456Z,39.06
2019-02-17T10:41:32.431Z,38.66
2019-02-17T10:42:32.417Z,38.46
2019-02-17T10:43:32.413Z,38.54
2019-02-17T10:44:32.399Z,38.40
2019-02-17T10:45:32.411Z,37.27
2019-02-17T10:46:32.380Z,37.40
2019-02-17T10:47:32.365Z,37.27
2019-02-17T10:48:32.353Z,36.98
2019-02-17T10:49:32.355Z,37.29
2019-02-17T10:50:32.350Z,37.36
2019-02-17T10:51:32.322Z,36.44
2019-02-17T10:52:32.314Z,36.82
2019-02-17T10:53:32.300Z,35.98
2019-02-17T10:54:32.290Z,35.38
2019-02-17T10:55:32.295Z,34.58
2019-02-17T10:56:32.278Z,34.88
2019-02-17T10:57:32.257Z,34.98
2019-02-17T10:58:32.251Z,36.11
2019-02-17T10:59:32.236Z,35.31
2019-02-17T11:00:32.241Z,35.18
2019-02-17T11:01:32.216Z,34.86
2019-02-17T11:02:32.212Z,33.74
2019-02-17T11:03:32.196Z,34.01
2019-02-17T11:04:32.189Z,33.59
2019-02-17T11:05:32.192Z,32.76
2019-02-17T11:06:32.163Z,32.26
2019-02-17T11:07:32.153Z,31.64
2019-02-17T11:08:32.155Z,31.93
2019-02-17T11:09:32.132Z,31.76
2019-02-17T11:10:32.139Z,32.64
2019-02-17T11:11:32.110Z,31.96
2019-02-17T11:12:32.101Z,32.26
2019-02-17T11:13:32.094Z,31.88
2019-02-17T11:14:32.092Z,31.59
2019-02-17T11:15:32.087Z,32.49
2019-02-17T11:16:32.059Z,32.18
2019-02-17T11:17:32.049Z,32.26
2019-02-17T11:18:32.037Z,31.94
2019-02-17T11:19:32.027Z,31.31
2019-02-17T11:20:32.041Z,31.28
2019-02-17T11:21:32.016Z,30.75
2019-02-17T11:22:31.995Z,31.28
2019-02-17T11:23:31.985Z,30.15
2019-02-17T11:24:31.974Z,29.31
2019-02-17T11:25:31.987Z,28.50
2019-02-17T11:26:31.965Z,28.60
2019-02-17T11:27:31.942Z,29.60
2019-02-17T11:28:31.942Z,28.70
2019-02-17T11:29:31.922Z,28.70
2019-02-17T11:30:31.930Z,28.73
2019-02-17T11:31:31.902Z,28.42
2019-02-17T11:32:32.409Z,29.34
2019-02-17T11:33:31.881Z,29.69
2019-02-17T11:34:31.870Z,28.80
2019-02-17T11:35:31.892Z,28.71
2019-02-17T11:36:31.845Z,28.49
2019-02-17T11:37:31.833Z,29.21
2019-02-17T11:38:31.828Z,29.68
2019-02-17T11:39:31.813Z,30.81
2019-02-17T11:40:31.806Z,30.10
2019-02-17T11:41:31.810Z,31.41
2019-02-17T11:42:31.781Z,31.38
2019-02-17T11:43:31.770Z,30.46
2019-02-17T11:44:32.058Z,30.57
2019-02-17T11:45:31.767Z,30.66
2019-02-17T11:46:31.742Z,30.58
2019-02-17T11:47:31.729Z,32.07
2019-02-17T11:48:31.717Z,32.93
2019-02-17T11:49:31.709Z,33.99
2019-02-17T11:50:31.725Z,35.41
2019-02-17T11:51:31.688Z,35.75
2019-02-17T11:52:31.677Z,36.77
2019-02-17T11:53:31.665Z,35.97
2019-02-17T11:54:31.655Z,36.69
2019-02-17T11:55:31.660Z,36.81
2019-02-17T11:56:31.648Z,36.61
2019-02-17T11:57:31.623Z,36.66
2019-02-17T11:58:31.612Z,35.82
2019-02-17T11:59:31.604Z,35.28
2019-02-17T12:00:31.614Z,34.96
2019-02-17T12:01:31.581Z,33.64
2019-02-17T12:02:31.581Z,33.12
2019-02-17T12:03:31.563Z,32.87
2019-02-17T12:04:31.554Z,32.31
2019-02-17T12:05:31.555Z,31.05
2019-02-17T12:06:31.529Z,29.41
2019-02-17T12:07:31.523Z,29.22
2019-02-17T12:08:31.518Z,28.52
2019-02-17T12:09:31.546Z,29.14
2019-02-17T12:10:31.514Z,28.55
2019-02-17T12:11:31.479Z,28.75
2019-02-17T12:12:31.466Z,29.27
2019-02-17T12:13:31.456Z,29.67
2019-02-17T12:14:31.456Z,29.78
2019-02-17T12:15:31.435Z,29.38
2019-02-17T12:16:37.015Z,29.78
2019-02-17T12:17:32.411Z,29.86
2019-02-17T12:18:31.403Z,29.36
2019-02-17T12:19:31.393Z,29.48
2019-02-17T12:20:31.392Z,29.86
2019-02-17T12:21:31.391Z,29.25
2019-02-17T12:22:31.362Z,29.47
2019-02-17T12:23:31.355Z,29.90
2019-02-17T12:24:31.340Z,30.10
2019-02-17T12:25:31.330Z,30.12
2019-02-17T12:26:31.345Z,30.41
2019-02-17T12:27:31.308Z,30.22
2019-02-17T12:28:31.298Z,30.65
2019-02-17T12:29:31.298Z,31.88
2019-02-17T12:30:31.285Z,32.53
2019-02-17T12:31:31.284Z,33.17
2019-02-17T12:32:31.267Z,33.94
2019-02-17T12:33:31.247Z,34.86
2019-02-17T12:34:31.236Z,35.08
2019-02-17T12:35:31.231Z,35.78
2019-02-17T12:36:31.235Z,35.88
2019-02-17T12:37:31.208Z,35.39
2019-02-17T12:38:31.203Z,36.40
2019-02-17T12:39:31.183Z,36.24
2019-02-17T12:40:31.178Z,36.86
2019-02-17T12:41:31.182Z,35.85
2019-02-17T12:42:31.159Z,36.88
2019-02-17T12:43:31.142Z,36.08
2019-02-17T12:44:31.149Z,37.62
2019-02-17T12:45:31.122Z,37.70
2019-02-17T12:46:31.179Z,38.02
2019-02-17T12:47:31.104Z,37.32
2019-02-17T12:48:31.095Z,37.82
2019-02-17T12:49:31.079Z,37.62
2019-02-17T12:50:31.078Z,37.43
2019-02-17T12:51:31.057Z,38.16
2019-02-17T12:52:31.098Z,38.65
2019-02-17T12:53:31.050Z,38.45
2019-02-17T12:54:31.037Z,38.14
2019-02-17T12:55:31.027Z,38.55
2019-02-17T12:56:31.030Z,38.55
2019-02-17T12:57:31.052Z,37.34
2019-02-17T12:58:30.996Z,37.74
2019-02-17T12:59:30.975Z,38.35
2019-02-17T13:00:30.961Z,37.54
2019-02-17T13:01:30.948Z,37.64
2019-02-17T13:02:30.955Z,37.54
2019-02-17T13:03:30.930Z,38.04
2019-02-17T13:04:30.929Z,37.12
2019-02-17T13:05:30.907Z,37.74
2019-02-17T13:06:30.897Z,37.72
2019-02-17T13:07:30.907Z,37.12
2019-02-17T13:08:30.877Z,37.72
2019-02-17T13:09:30.863Z,36.83
2019-02-17T13:10:30.857Z,37.23
2019-02-17T13:11:30.860Z,37.54
2019-02-17T13:12:30.853Z,37.43
2019-02-17T13:13:30.823Z,37.25
2019-02-17T13:14:30.812Z,37.43
2019-02-17T13:15:30.803Z,37.43
2019-02-17T13:16:30.793Z,37.43
2019-02-17T13:17:30.817Z,37.64
2019-02-17T13:18:30.782Z,37.43
2019-02-17T13:19:30.760Z,37.54
2019-02-17T13:20:30.748Z,37.12
2019-02-17T13:21:30.747Z,36.93
2019-02-17T13:22:30.779Z,37.32
2019-02-17T13:23:30.725Z,37.32
2019-02-17T13:24:30.723Z,37.43
2019-02-17T13:25:30.698Z,37.23
2019-02-17T13:26:30.687Z,37.03
2019-02-17T13:27:30.674Z,37.23
2019-02-17T13:28:30.678Z,37.54
2019-02-17T13:29:30.655Z,37.34
2019-02-17T13:30:30.668Z,37.13
2019-02-17T13:31:30.629Z,37.03
2019-02-17T13:32:30.619Z,37.23
2019-02-17T13:33:38.805Z,37.64
2019-02-17T13:34:31.612Z,37.65
2019-02-17T13:35:30.592Z,37.74
2019-02-17T13:36:30.576Z,37.64
2019-02-17T13:37:30.579Z,37.25
2019-02-17T13:38:30.575Z,37.34
2019-02-17T13:39:30.546Z,36.93
2019-02-17T13:40:30.536Z,37.43
2019-02-17T13:41:30.524Z,37.23
2019-02-17T13:42:30.515Z,37.13
2019-02-17T13:43:30.552Z,37.43
2019-02-17T13:44:30.494Z,37.23
2019-02-17T13:45:30.480Z,37.23
2019-02-17T13:46:30.474Z,36.93
2019-02-17T13:47:30.459Z,36.32
2019-02-17T13:48:30.471Z,37.34
2019-02-17T13:49:30.436Z,36.72
2019-02-17T13:50:30.428Z,36.91
2019-02-17T13:51:30.423Z,35.72
2019-02-17T13:52:32.026Z,36.41
2019-02-17T13:53:30.416Z,36.61
2019-02-17T13:54:30.384Z,35.90
2019-02-17T13:55:30.372Z,36.61
2019-02-17T13:56:30.364Z,36.30
2019-02-17T13:57:30.374Z,36.12
2019-02-17T13:58:30.356Z,36.12
2019-02-17T13:59:30.331Z,36.93
2019-02-17T14:00:30.326Z,36.32
2019-02-17T14:01:30.307Z,36.83
2019-02-17T14:02:30.300Z,35.72
2019-02-17T14:03:30.303Z,36.61
2019-02-17T14:04:30.293Z,36.63
2019-02-17T14:05:30.266Z,36.41
2019-02-17T14:06:30.257Z,36.43
2019-02-17T14:07:30.243Z,36.22
2019-02-17T14:08:31.328Z,36.22
2019-02-17T14:09:30.225Z,36.93
2019-02-17T14:10:30.220Z,37.13
2019-02-17T14:11:30.207Z,36.22
2019-02-17T14:12:30.190Z,36.41
2019-02-17T14:13:30.195Z,36.61
2019-02-17T14:14:30.169Z,36.21
2019-02-17T14:15:30.157Z,36.51
2019-02-17T14:16:30.164Z,36.51
2019-02-17T14:17:30.143Z,35.60
2019-02-17T14:18:30.147Z,36.71
2019-02-17T14:19:30.113Z,36.41
2019-02-17T14:20:30.104Z,35.60
2019-02-17T14:21:30.095Z,35.30
2019-02-17T14:22:30.107Z,36.39
2019-02-17T14:23:30.088Z,35.88
2019-02-17T14:24:30.063Z,35.60
2019-02-17T14:25:30.050Z,36.59
2019-02-17T14:26:30.041Z,36.79
2019-02-17T14:27:30.029Z,36.39
2019-02-17T14:28:30.078Z,36.39
2019-02-17T14:29:30.013Z,35.99
2019-02-17T14:30:30.549Z,36.90
2019-02-17T14:31:29.989Z,36.79
2019-02-17T14:32:29.976Z,36.39
2019-02-17T14:33:29.966Z,36.39
2019-02-17T14:34:29.987Z,36.90
2019-02-17T14:35:29.946Z,37.30
2019-02-17T14:36:29.934Z,37.50
2019-02-17T14:37:29.921Z,37.30
2019-02-17T14:38:29.912Z,37.10
2019-02-17T14:39:29.933Z,37.40
2019-02-17T14:40:29.892Z,37.60
2019-02-17T14:41:29.902Z,36.69
2019-02-17T14:42:29.868Z,36.19
2019-02-17T14:43:29.858Z,36.08
2019-02-17T14:44:29.864Z,35.68
2019-02-17T14:45:29.837Z,36.69
2019-02-17T14:46:29.827Z,36.19
2019-02-17T14:47:29.841Z,36.79
2019-02-17T14:48:29.805Z,36.90
2019-02-17T14:49:29.809Z,37.20
2019-02-17T14:50:29.783Z,37.20
2019-02-17T14:51:29.777Z,37.30
2019-02-17T14:52:29.763Z,37.42
2019-02-17T14:53:29.774Z,37.32
2019-02-17T14:54:29.764Z,37.40
2019-02-17T14:55:29.728Z,37.40
2019-02-17T14:56:29.723Z,37.50
2019-02-17T14:57:29.712Z,37.92
2019-02-17T14:58:29.698Z,37.72
2019-02-17T14:59:29.706Z,38.33
2019-02-17T15:00:29.676Z,38.43
2019-02-17T15:01:29.674Z,38.13
2019-02-17T15:02:29.652Z,38.13
2019-02-17T15:03:29.642Z,38.84
2019-02-17T15:04:29.683Z,38.53
2019-02-17T15:05:29.630Z,38.73
2019-02-17T15:06:29.621Z,38.55
2019-02-17T15:07:29.602Z,38.73
2019-02-17T15:08:29.598Z,38.55
2019-02-17T15:09:29.579Z,39.15
2019-02-17T15:10:29.589Z,39.15
2019-02-17T15:11:29.561Z,39.36
2019-02-17T15:12:29.547Z,40.06
2019-02-17T15:13:29.535Z,39.56
2019-02-17T15:14:29.547Z,39.56
2019-02-17T15:15:29.532Z,39.76
2019-02-17T15:16:29.508Z,39.66
2019-02-17T15:17:29.493Z,39.76
2019-02-17T15:18:29.485Z,39.36
2019-02-17T15:19:29.474Z,39.56
2019-02-17T15:20:29.488Z,39.56
2019-02-17T15:21:29.450Z,38.75
2019-02-17T15:22:29.451Z,39.26
2019-02-17T15:23:29.428Z,39.56
2019-02-17T15:24:29.417Z,39.56
2019-02-17T15:25:29.424Z,39.06
2019-02-17T15:26:29.408Z,40.09
2019-02-17T15:27:29.386Z,40.27
2019-02-17T15:28:29.374Z,40.09
2019-02-17T15:29:31.635Z,40.19
2019-02-17T15:30:29.370Z,39.86
2019-02-17T15:31:30.900Z,40.06
2019-02-17T15:32:29.342Z,39.68
2019-02-17T15:33:29.325Z,40.19
2019-02-17T15:34:29.311Z,39.68
2019-02-17T15:35:29.318Z,40.09
2019-02-17T15:36:29.289Z,40.29
2019-02-17T15:37:29.279Z,40.49
2019-02-17T15:38:29.280Z,40.80
2019-02-17T15:39:29.259Z,40.39
2019-02-17T15:40:29.265Z,40.29
2019-02-17T15:41:29.236Z,40.09
2019-02-17T15:42:29.226Z,40.59
2019-02-17T15:43:29.213Z,40.09
2019-02-17T15:44:29.210Z,40.39
2019-02-17T15:45:29.242Z,41.30
2019-02-17T15:46:29.184Z,41.00
2019-02-17T15:47:29.178Z,41.71
2019-02-17T15:48:29.160Z,41.52
2019-02-17T15:49:29.155Z,41.32
2019-02-17T15:50:29.140Z,41.22
2019-02-17T15:51:29.159Z,41.42
2019-02-17T15:52:30.174Z,41.42
2019-02-17T15:53:31.006Z,40.91
2019-02-17T15:54:29.097Z,41.12
2019-02-17T15:55:29.083Z,41.42
2019-02-17T15:56:29.091Z,41.32
2019-02-17T15:57:29.070Z,40.81
2019-02-17T15:58:29.074Z,41.83
2019-02-17T15:59:29.044Z,41.85
2019-02-17T16:00:29.033Z,41.32
2019-02-17T16:01:29.040Z,42.15
2019-02-17T16:02:29.010Z,41.64
2019-02-17T16:03:28.998Z,41.95
2019-02-17T16:04:29.006Z,41.74
2019-02-17T16:05:28.978Z,41.56
2019-02-17T16:06:28.989Z,41.97
2019-02-17T16:07:28.957Z,41.95
2019-02-17T16:08:28.945Z,41.97
2019-02-17T16:09:28.936Z,42.05
2019-02-17T16:10:28.942Z,42.17
2019-02-17T16:11:28.932Z,41.86
2019-02-17T16:12:28.903Z,40.95
2019-02-17T16:13:28.891Z,42.07
2019-02-17T16:14:28.881Z,41.86
2019-02-17T16:15:28.872Z,41.05
2019-02-17T16:16:28.884Z,40.95
2019-02-17T16:17:28.847Z,41.36
2019-02-17T16:18:28.839Z,41.24
2019-02-17T16:19:28.824Z,41.26
2019-02-17T16:20:28.815Z,41.36
2019-02-17T16:21:28.836Z,41.16
2019-02-17T16:22:28.805Z,41.36
2019-02-17T16:23:28.793Z,41.16
2019-02-17T16:24:28.774Z,41.16
2019-02-17T16:25:28.761Z,41.46
2019-02-17T16:26:28.753Z,41.46
2019-02-17T16:27:28.759Z,41.46
2019-02-17T16:28:28.733Z,41.26
2019-02-17T16:29:28.735Z,41.38
2019-02-17T16:30:28.708Z,41.46
2019-02-17T16:31:28.699Z,41.17
2019-02-17T16:32:28.709Z,40.87
2019-02-17T16:33:28.679Z,41.88
2019-02-17T16:34:37.792Z,40.97
2019-02-17T16:35:29.663Z,41.38
2019-02-17T16:36:28.645Z,40.97
2019-02-17T16:37:28.649Z,41.48
2019-02-17T16:38:28.621Z,41.28
2019-02-17T16:39:28.612Z,41.17
2019-02-17T16:40:28.610Z,41.07
2019-02-17T16:41:28.614Z,41.17
2019-02-17T16:42:28.604Z,41.17
2019-02-17T16:43:28.569Z,41.07
2019-02-17T16:44:28.558Z,41.09
2019-02-17T16:45:28.551Z,41.30
2019-02-17T16:46:28.548Z,41.28
2019-02-17T16:47:28.557Z,40.97
2019-02-17T16:48:28.514Z,40.97
2019-02-17T16:49:28.502Z,41.09
2019-02-17T16:50:28.493Z,40.99
2019-02-17T16:51:28.481Z,41.91
2019-02-17T16:52:28.493Z,42.21
2019-02-17T16:53:28.469Z,41.80
2019-02-17T16:54:28.453Z,41.72
2019-02-17T16:55:28.444Z,41.93
2019-02-17T16:56:28.430Z,42.02
2019-02-17T16:57:28.433Z,41.62
2019-02-17T16:58:28.408Z,41.82
2019-02-17T16:59:28.408Z,42.02
2019-02-17T17:00:28.387Z,42.02
2019-02-17T17:01:28.374Z,42.54
2019-02-17T17:02:28.390Z,42.54
2019-02-17T17:03:28.352Z,42.55
2019-02-17T17:04:28.344Z,42.63
2019-02-17T17:05:28.329Z,42.23
2019-02-17T17:06:28.323Z,42.45
2019-02-17T17:07:28.310Z,42.45
2019-02-17T17:08:28.334Z,42.55
2019-02-17T17:09:28.288Z,42.76
2019-02-17T17:10:28.281Z,42.45
2019-02-17T17:11:28.276Z,42.55
2019-02-17T17:12:28.256Z,42.14
2019-02-17T17:13:28.266Z,42.45
2019-02-17T17:14:28.238Z,43.06
2019-02-17T17:15:28.235Z,42.76
2019-02-17T17:16:28.214Z,42.76
2019-02-17T17:17:28.209Z,42.25
2019-02-17T17:18:28.212Z,42.98
2019-02-17T17:19:28.181Z,42.88
2019-02-17T17:20:28.176Z,43.49
2019-02-17T17:21:28.172Z,42.86
2019-02-17T17:22:28.152Z,43.08
2019-02-17T17:23:28.171Z,43.18
2019-02-17T17:24:28.125Z,43.49
2019-02-17T17:25:28.126Z,43.08
2019-02-17T17:26:28.109Z,42.77
2019-02-17T17:27:28.110Z,42.77
2019-02-17T17:28:28.103Z,43.79
2019-02-17T17:29:28.076Z,43.38
2019-02-17T17:30:28.086Z,44.02
2019-02-17T17:31:28.070Z,43.41
2019-02-17T17:32:28.040Z,43.81
2019-02-17T17:33:28.048Z,44.02
2019-02-17T17:34:28.022Z,43.81
2019-02-17T17:35:28.024Z,43.91
2019-02-17T17:36:27.996Z,43.81
2019-02-17T17:37:27.988Z,44.24
2019-02-17T17:38:27.992Z,44.02
2019-02-17T17:39:27.977Z,44.22
2019-02-17T17:40:27.971Z,44.24
2019-02-17T17:41:27.944Z,44.24
2019-02-17T17:42:27.933Z,44.14
2019-02-17T17:43:27.962Z,43.84
2019-02-17T17:44:27.910Z,44.04
2019-02-17T17:45:27.910Z,44.34
2019-02-17T17:46:27.932Z,44.14
2019-02-17T17:47:27.878Z,43.93
2019-02-17T17:48:27.886Z,44.14
2019-02-17T17:49:27.865Z,44.45
2019-02-17T17:50:27.850Z,44.16
2019-02-17T17:51:27.886Z,44.26
2019-02-17T17:52:27.827Z,44.46
2019-02-17T17:53:27.836Z,44.67
2019-02-17T17:54:27.803Z,44.77
2019-02-17T17:55:28.503Z,44.67
2019-02-17T17:56:27.782Z,44.97
2019-02-17T17:57:27.778Z,44.57
2019-02-17T17:58:27.785Z,44.59
2019-02-17T17:59:27.756Z,45.40
2019-02-17T18:00:27.739Z,44.79
2019-02-17T18:01:27.742Z,45.00
2019-02-17T18:02:27.721Z,44.79
2019-02-17T18:03:27.722Z,44.89
2019-02-17T18:04:27.703Z,44.38
2019-02-17T18:05:27.686Z,45.94
2019-02-17T18:06:27.678Z,45.20
2019-02-17T18:07:27.663Z,44.71
2019-02-17T18:08:27.677Z,44.81
2019-02-17T18:09:27.641Z,44.61
2019-02-17T18:10:27.643Z,45.73
2019-02-17T18:11:27.619Z,45.53
2019-02-17T18:12:27.610Z,45.53
2019-02-17T18:13:27.634Z,46.34
2019-02-17T18:14:27.596Z,46.26
2019-02-17T18:15:27.593Z,46.15
2019-02-17T18:16:27.569Z,46.06
2019-02-17T18:17:27.556Z,46.26
2019-02-17T18:18:27.543Z,48.50
2019-02-17T18:19:27.553Z,46.69
2019-02-17T18:20:27.529Z,48.02
2019-02-17T18:21:27.513Z,46.59
2019-02-17T18:22:27.503Z,46.89
2019-02-17T18:23:27.504Z,46.79
2019-02-17T18:24:27.504Z,47.12
2019-02-17T18:25:27.473Z,46.48
2019-02-17T18:26:27.471Z,46.30
2019-02-17T18:27:27.445Z,46.41
2019-02-17T18:28:27.435Z,44.57
2019-02-17T18:29:27.439Z,45.08
2019-02-17T18:30:27.435Z,45.77
2019-02-17T18:31:27.400Z,45.06
2019-02-17T18:32:27.404Z,44.16
2019-02-17T18:33:27.380Z,44.14
2019-02-17T18:34:27.392Z,42.92
2019-02-17T18:35:27.393Z,43.43
2019-02-17T18:36:27.354Z,43.02
2019-02-17T18:37:27.336Z,42.71
2019-02-17T18:38:27.332Z,42.29
2019-02-17T18:39:27.716Z,42.39
2019-02-17T18:40:27.318Z,42.59
2019-02-17T18:41:27.290Z,42.08
2019-02-17T18:42:27.280Z,42.08
2019-02-17T18:43:27.309Z,41.66
2019-02-17T18:44:27.325Z,41.45
2019-02-17T18:45:27.291Z,41.25
2019-02-17T18:46:27.265Z,40.31
2019-02-17T18:47:27.235Z,40.62
2019-02-17T18:48:27.222Z,40.53
2019-02-17T18:49:27.221Z,40.01
2019-02-17T18:50:27.190Z,40.31
2019-02-17T18:51:27.199Z,40.31
2019-02-17T18:52:27.168Z,39.48
2019-02-17T18:53:27.179Z,39.99
2019-02-17T18:54:27.162Z,40.11
2019-02-17T18:55:27.150Z,40.11
2019-02-17T18:56:27.146Z,40.11
2019-02-17T18:57:27.114Z,40.41
2019-02-17T18:58:27.107Z,40.31
2019-02-17T18:59:27.125Z,40.01
2019-02-17T19:00:27.085Z,40.11
2019-02-17T19:01:27.082Z,40.31
2019-02-17T19:02:27.067Z,38.58
2019-02-17T19:03:27.050Z,38.89
2019-02-17T19:04:27.104Z,38.68
2019-02-17T19:05:32.012Z,38.80
2019-02-17T19:06:28.031Z,39.01
2019-02-17T19:07:27.029Z,38.70
2019-02-17T19:08:27.001Z,38.38
2019-02-17T19:09:27.001Z,38.70
2019-02-17T19:10:26.993Z,39.01
2019-02-17T19:11:26.997Z,39.09
2019-02-17T19:12:26.960Z,38.89
2019-02-17T19:13:26.943Z,39.01
2019-02-17T19:14:26.927Z,39.01
2019-02-17T19:15:26.969Z,38.90
2019-02-17T19:16:26.920Z,39.42
2019-02-17T19:17:26.937Z,39.72
2019-02-17T19:18:26.906Z,38.90
2019-02-17T19:19:26.928Z,40.12
2019-02-17T19:20:26.937Z,39.94
2019-02-17T19:21:27.474Z,39.51
2019-02-17T19:22:26.867Z,39.84
2019-02-17T19:23:26.913Z,40.25
2019-02-17T19:24:26.837Z,40.45
2019-02-17T19:25:26.889Z,40.66
2019-02-17T19:26:26.809Z,40.26
2019-02-17T19:27:26.800Z,40.37
2019-02-17T19:28:26.791Z,40.26
2019-02-17T19:29:26.763Z,40.67
2019-02-17T19:30:26.791Z,40.78
2019-02-17T19:31:26.770Z,41.19
2019-02-17T19:32:26.756Z,40.78
2019-02-17T19:33:26.726Z,40.47
2019-02-17T19:34:26.716Z,40.67
2019-02-17T19:35:26.716Z,41.19
2019-02-17T19:36:26.692Z,40.59
2019-02-17T19:37:26.684Z,40.47
2019-02-17T19:38:26.680Z,40.57
2019-02-17T19:39:26.670Z,41.30
2019-02-17T19:40:26.696Z,41.30